Weather reports worldwide

Advertisment
Bealach, United Kingdom (3039): temperature & dewpoint: 22.05.2020 23:00:00 - 28.05.2020 23:00:00 (BST)Bealach, United Kingdom (3039): wind speed & gusts: 22.05.2020 23:00:00 - 28.05.2020 23:00:00 (BST)Bealach, United Kingdom (3039): wind direction: 22.05.2020 23:00:00 - 28.05.2020 23:00:00 (BST)
Date & Time tt [°C] td [°C] ff [km/h] ff [kn] fx [km/h] fx [kn] dd
28.05.2020 23:00:00 - - - - - - -
28.05.2020 22:00:00 12,8 9,5 18 10 - - ESE
28.05.2020 21:00:00 12,8 7,8 8 4 - - SE
28.05.2020 20:00:00 13,2 7,3 15 8 - - S
28.05.2020 19:00:00 13,7 7,5 13 7 - - S
28.05.2020 18:00:00 13,7 8,5 16 9 - - SSW
28.05.2020 17:00:00 12,7 7,5 16 9 - - SSW
28.05.2020 16:00:00 12,4 7,6 13 7 - - S
28.05.2020 15:00:00 12,1 8,3 16 9 - - S
28.05.2020 14:00:00 11,8 8,2 21 11 - - SSW
28.05.2020 13:00:00 10,8 8,7 28 15 - - SW
28.05.2020 12:00:00 9,5 8,9 18 10 - - SSW
28.05.2020 11:00:00 8,3 8,2 35 19 46 25 SSW
28.05.2020 10:00:00 8,5 8,5 35 19 - - SSW
28.05.2020 09:00:00 8,4 8,4 28 15 - - SSW
28.05.2020 08:00:00 7,6 7,6 29 16 - - SW
28.05.2020 07:00:00 7,7 7,7 34 18 46 25 SW
28.05.2020 06:00:00 7,8 7,8 39 21 54 29 SW
28.05.2020 05:00:00 7,4 7,4 46 25 63 34 SSW
28.05.2020 04:00:00 7,6 7,6 50 27 72 39 SW
28.05.2020 03:00:00 7,1 7,0 59 32 74 40 SSW
28.05.2020 02:00:00 6,7 6,7 57 31 76 41 SSW
28.05.2020 01:00:00 6,6 6,6 57 31 72 39 S
28.05.2020 00:00:00 5,8 5,7 46 25 61 33 S
27.05.2020 23:00:00 5,8 4,1 35 19 59 32 S
27.05.2020 22:00:00 6,2 5,0 35 19 57 31 S
27.05.2020 21:00:00 6,4 5,8 34 18 - - S
27.05.2020 20:00:00 6,5 5,2 29 16 - - S
27.05.2020 19:00:00 7,5 3,1 21 11 - - SSW
27.05.2020 18:00:00 9,0 3,1 22 12 - - SSW
27.05.2020 17:00:00 9,6 2,2 13 7 - - S
27.05.2020 16:00:00 9,2 -0,3 11 6 - - SSE
27.05.2020 15:00:00 8,7 0,3 11 6 - - S
27.05.2020 14:00:00 9,6 -1,7 8 4 - - SSW
27.05.2020 13:00:00 7,9 -1,4 5 3 - - NNW
27.05.2020 12:00:00 7,2 1,9 9 5 - - WNW
27.05.2020 11:00:00 5,6 1,6 9 5 - - W
27.05.2020 10:00:00 5,3 2,2 9 5 - - WNW
27.05.2020 09:00:00 4,3 2,3 11 6 - - WNW
27.05.2020 08:00:00 3,9 3,5 8 4 - - W
27.05.2020 07:00:00 3,6 3,5 24 13 - - W
27.05.2020 06:00:00 3,4 3,4 26 14 - - WSW
27.05.2020 05:00:00 3,0 2,9 26 14 - - W
27.05.2020 04:00:00 3,3 3,3 26 14 - - W
27.05.2020 03:00:00 3,1 3,1 31 17 - - W
27.05.2020 02:00:00 3,0 2,9 35 19 - - W
27.05.2020 01:00:00 3,2 3,2 28 15 - - WSW
27.05.2020 00:00:00 4,0 4,0 26 14 - - WSW
26.05.2020 23:00:00 3,7 3,5 16 9 - - SW
26.05.2020 22:00:00 3,9 2,9 28 15 - - W
26.05.2020 21:00:00 4,2 3,1 28 15 - - WSW
26.05.2020 20:00:00 4,5 3,3 31 17 - - WSW
26.05.2020 19:00:00 5,1 3,9 31 17 46 25 WSW
26.05.2020 18:00:00 5,0 3,8 35 19 - - SW
26.05.2020 17:00:00 5,1 3,6 24 13 48 26 SW
26.05.2020 16:00:00 6,1 2,7 34 18 48 26 WSW
26.05.2020 15:00:00 5,9 3,0 35 19 46 25 WSW
26.05.2020 14:00:00 5,1 3,8 35 19 - - WSW
26.05.2020 13:00:00 5,0 4,3 39 21 46 25 SW
26.05.2020 12:00:00 5,1 4,6 29 16 46 25 WSW
26.05.2020 11:00:00 4,7 4,6 35 19 - - SW
26.05.2020 10:00:00 4,3 4,3 34 18 52 28 WSW
26.05.2020 09:00:00 4,7 4,7 34 18 52 28 SW
26.05.2020 08:00:00 4,5 4,5 39 21 52 28 WSW
26.05.2020 07:00:00 4,4 4,4 39 21 50 27 SW
26.05.2020 06:00:00 4,6 4,6 41 22 52 28 SW
26.05.2020 05:00:00 4,3 4,3 37 20 50 27 SW
26.05.2020 04:00:00 4,5 4,5 37 20 50 27 SSW
26.05.2020 03:00:00 4,3 4,3 41 22 52 28 SSW
26.05.2020 02:00:00 4,8 4,8 42 23 55 30 SSW
26.05.2020 01:00:00 5,1 5,1 44 24 52 28 SSW
26.05.2020 00:00:00 5,3 5,3 37 20 - - SSW
25.05.2020 23:00:00 6,2 6,2 31 17 59 32 WSW
25.05.2020 22:00:00 6,4 6,4 54 29 78 42 SSW
25.05.2020 21:00:00 6,4 6,4 68 37 85 46 SSW
25.05.2020 20:00:00 6,3 6,2 68 37 91 49 SSW
25.05.2020 19:00:00 6,0 5,9 68 37 89 48 S
25.05.2020 18:00:00 5,6 5,6 72 39 93 50 S
25.05.2020 17:00:00 5,7 5,5 70 38 100 54 SSW
25.05.2020 16:00:00 7,7 5,0 78 42 96 52 S
25.05.2020 15:00:00 8,5 5,2 37 20 85 46 S
25.05.2020 14:00:00 8,6 5,0 57 31 98 53 S
25.05.2020 13:00:00 8,0 4,1 21 11 98 53 SSE
25.05.2020 12:00:00 8,0 4,2 50 27 81 44 S
25.05.2020 11:00:00 7,3 3,6 46 25 80 43 S
25.05.2020 10:00:00 6,7 6,0 68 37 83 45 S
25.05.2020 09:00:00 6,2 6,1 44 24 72 39 S
25.05.2020 08:00:00 5,9 5,9 50 27 70 38 S
25.05.2020 07:00:00 5,4 5,4 57 31 78 42 S
25.05.2020 06:00:00 5,1 5,1 59 32 70 38 SSW
25.05.2020 05:00:00 5,3 5,3 50 27 70 38 SSW
25.05.2020 04:00:00 5,2 5,2 55 30 72 39 SSW
25.05.2020 03:00:00 5,0 5,0 59 32 70 38 SSW
25.05.2020 02:00:00 5,3 5,3 52 28 65 35 SSW
25.05.2020 01:00:00 5,5 5,5 55 30 67 36 SSW
25.05.2020 00:00:00 5,4 5,4 57 31 68 37 SSW
24.05.2020 23:00:00 5,2 5,2 52 28 68 37 SSW
24.05.2020 22:00:00 5,6 5,6 55 30 65 35 SSW
24.05.2020 21:00:00 5,5 5,5 52 28 63 34 SW
24.05.2020 20:00:00 5,5 5,5 54 29 63 34 SSW
24.05.2020 19:00:00 5,5 5,5 46 25 57 31 SSW
24.05.2020 18:00:00 5,8 5,8 21 11 59 32 SSW
24.05.2020 17:00:00 5,7 5,6 46 25 67 36 WSW
24.05.2020 16:00:00 6,0 6,0 50 27 65 35 WSW
24.05.2020 15:00:00 6,2 6,2 52 28 63 34 WSW
24.05.2020 14:00:00 6,4 6,4 50 27 63 34 W
24.05.2020 13:00:00 6,5 6,5 46 25 61 33 W
24.05.2020 12:00:00 6,8 6,8 46 25 59 32 W
24.05.2020 11:00:00 6,8 6,8 44 24 63 34 W
24.05.2020 10:00:00 6,7 6,7 48 26 63 34 WNW
24.05.2020 09:00:00 6,5 6,5 46 25 57 31 W
24.05.2020 08:00:00 6,0 6,0 42 23 54 29 W
24.05.2020 07:00:00 5,3 5,3 39 21 52 28 W
24.05.2020 06:00:00 4,8 4,8 42 23 55 30 W
24.05.2020 05:00:00 4,5 4,5 39 21 52 28 W
24.05.2020 04:00:00 3,7 3,7 41 22 59 32 WNW
24.05.2020 03:00:00 3,7 3,7 46 25 61 33 W
24.05.2020 02:00:00 3,7 3,7 52 28 67 36 W
24.05.2020 01:00:00 4,1 4,1 55 30 70 38 WSW
24.05.2020 00:00:00 4,1 4,1 57 31 83 45 W
23.05.2020 23:00:00 4,2 4,2 57 31 89 48 W
23.05.2020 22:00:00 4,2 4,2 67 36 91 49 W
23.05.2020 21:00:00 4,2 4,2 63 34 94 51 W
23.05.2020 20:00:00 3,8 3,8 74 40 100 54 W
23.05.2020 19:00:00 3,7 3,7 72 39 96 52 W
23.05.2020 18:00:00 3,6 3,6 76 41 96 52 W
23.05.2020 17:00:00 4,0 4,0 70 38 89 48 W
23.05.2020 16:00:00 4,4 4,4 65 35 98 53 W
23.05.2020 15:00:00 4,7 4,7 63 34 100 54 W
23.05.2020 14:00:00 4,8 4,8 67 36 91 49 WSW
23.05.2020 13:00:00 4,8 4,8 65 35 87 47 W
23.05.2020 12:00:00 4,6 4,6 67 36 83 45 W
23.05.2020 11:00:00 4,9 4,9 65 35 89 48 WSW
23.05.2020 10:00:00 4,6 4,6 70 38 96 52 WSW
23.05.2020 09:00:00 4,6 4,6 83 45 98 53 WSW
23.05.2020 08:00:00 4,8 4,8 48 26 85 46 SW
23.05.2020 07:00:00 4,7 4,7 55 30 80 43 WSW
23.05.2020 06:00:00 4,2 4,2 65 35 126 68 SSW
23.05.2020 05:00:00 2,7 2,7 104 56 139 75 SSW
23.05.2020 04:00:00 3,2 3,2 111 60 148 80 SSW
23.05.2020 03:00:00 3,4 3,4 113 61 152 82 SSW
23.05.2020 02:00:00 3,6 3,6 119 64 161 87 SSW
23.05.2020 01:00:00 4,1 4,1 115 62 154 83 SSW
23.05.2020 00:00:00 4,0 4,0 115 62 152 82 SSW
22.05.2020 23:00:00 4,2 4,2 120 65 150 81 SSW

tt = temperature
td = dewpoint
ff = wind speed
fx = gusts
dd = wind direction

Next stations